createdAt,value
2019-01-04T00:01:50.914Z,-1.80
2019-01-04T00:04:19.268Z,-1.80
2019-01-04T00:06:47.511Z,-1.80
2019-01-04T00:09:15.770Z,-1.80
2019-01-04T00:11:44.017Z,-1.90
2019-01-04T00:14:12.282Z,-1.90
2019-01-04T00:16:40.521Z,-1.90
2019-01-04T00:19:08.873Z,-2.00
2019-01-04T00:21:37.126Z,-2.10
2019-01-04T00:24:05.420Z,-2.10
2019-01-04T00:26:33.722Z,-2.10
2019-01-04T00:29:01.988Z,-2.10
2019-01-04T00:31:30.246Z,-2.10
2019-01-04T00:33:58.521Z,-2.10
2019-01-04T00:36:26.775Z,-2.10
2019-01-04T00:38:55.041Z,-2.10
2019-01-04T00:41:23.293Z,-2.10
2019-01-04T00:43:51.560Z,-2.20
2019-01-04T00:46:19.826Z,-2.20
2019-01-04T00:48:48.081Z,-2.20
2019-01-04T00:51:16.336Z,-2.20
2019-01-04T00:53:44.599Z,-2.20
2019-01-04T00:56:16.130Z,-2.20
2019-01-04T00:58:52.991Z,-2.20
2019-01-04T01:01:42.499Z,-2.30
2019-01-04T01:04:22.845Z,-2.30
2019-01-04T01:07:03.363Z,-2.30
2019-01-04T01:09:40.543Z,-2.20
2019-01-04T01:12:23.914Z,-2.20
2019-01-04T01:15:09.974Z,-2.20
2019-01-04T01:17:53.250Z,-2.20
2019-01-04T01:20:57.981Z,-2.20
2019-01-04T01:24:02.746Z,-2.20
2019-01-04T01:26:52.034Z,-2.20
2019-01-04T01:29:40.068Z,-2.30
2019-01-04T01:32:59.461Z,-2.20
2019-01-04T01:35:33.575Z,-2.20
2019-01-04T01:38:42.287Z,-2.20
2019-01-04T01:41:25.592Z,-2.20
2019-01-04T01:44:19.471Z,-2.20
2019-01-04T01:46:53.634Z,-2.20
2019-01-04T01:49:42.953Z,-2.10
2019-01-04T01:52:14.462Z,-2.10
2019-01-04T01:54:42.731Z,-2.10
2019-01-04T01:57:10.989Z,-2.00
2019-01-04T01:59:39.266Z,-2.00
2019-01-04T02:02:07.518Z,-2.00
2019-01-04T02:04:35.777Z,-2.00
2019-01-04T02:07:04.043Z,-2.00
2019-01-04T02:09:32.307Z,-2.00
2019-01-04T02:12:00.582Z,-2.00
2019-01-04T02:14:28.858Z,-2.00
2019-01-04T02:16:57.122Z,-2.00
2019-01-04T02:19:44.819Z,-2.00
2019-01-04T02:22:13.077Z,-2.10
2019-01-04T02:24:41.425Z,-2.10
2019-01-04T02:27:09.688Z,-2.10
2019-01-04T02:29:37.942Z,-2.10
2019-01-04T02:32:06.194Z,-2.10
2019-01-04T02:34:34.472Z,-2.10
2019-01-04T02:37:02.717Z,-2.10
2019-01-04T02:39:30.981Z,-2.10
2019-01-04T02:41:59.255Z,-2.10
2019-01-04T02:44:27.541Z,-2.00
2019-01-04T02:46:55.811Z,-2.10
2019-01-04T02:49:24.083Z,-2.10
2019-01-04T02:51:52.345Z,-2.00
2019-01-04T02:54:20.626Z,-1.90
2019-01-04T02:56:48.881Z,-1.90
2019-01-04T02:59:17.144Z,-1.80
2019-01-04T03:01:45.388Z,-1.80
2019-01-04T03:04:13.638Z,-1.80
2019-01-04T03:06:41.899Z,-1.80
2019-01-04T03:09:10.149Z,-1.70
2019-01-04T03:11:38.415Z,-1.70
2019-01-04T03:14:06.669Z,-1.70
2019-01-04T03:16:34.949Z,-1.70
2019-01-04T03:19:03.226Z,-1.70
2019-01-04T03:21:31.500Z,-1.70
2019-01-04T03:23:59.749Z,-1.60
2019-01-04T03:26:28.011Z,-1.60
2019-01-04T03:28:56.274Z,-1.60
2019-01-04T03:31:24.547Z,-1.60
2019-01-04T03:33:52.808Z,-1.60
2019-01-04T03:36:21.087Z,-1.50
2019-01-04T03:38:49.353Z,-1.50
2019-01-04T03:41:17.629Z,-1.50
2019-01-04T03:43:45.886Z,-1.40
2019-01-04T03:46:14.156Z,-1.40
2019-01-04T03:48:42.410Z,-1.40
2019-01-04T03:51:10.670Z,-1.40
2019-01-04T03:53:38.929Z,-1.30
2019-01-04T03:56:07.195Z,-1.30
2019-01-04T03:58:35.445Z,-1.30
2019-01-04T04:01:03.714Z,-1.30
2019-01-04T04:03:51.470Z,-1.30
2019-01-04T04:06:19.736Z,-1.20
2019-01-04T04:08:47.998Z,-1.20
2019-01-04T04:11:16.262Z,-1.20
2019-01-04T04:13:44.518Z,-1.20
2019-01-04T04:16:12.790Z,-1.10
2019-01-04T04:18:41.038Z,-1.00
2019-01-04T04:21:09.310Z,-1.00
2019-01-04T04:23:37.571Z,-1.00
2019-01-04T04:26:05.837Z,-1.00
2019-01-04T04:28:34.104Z,-0.90
2019-01-04T04:31:02.366Z,-0.90
2019-01-04T04:33:30.621Z,-0.90
2019-01-04T04:35:58.877Z,-0.90
2019-01-04T04:38:27.130Z,-0.80
2019-01-04T04:40:55.404Z,-0.80
2019-01-04T04:43:23.649Z,-0.80
2019-01-04T04:45:51.918Z,-0.80
2019-01-04T04:48:20.173Z,-0.70
2019-01-04T04:50:48.441Z,-0.70
2019-01-04T04:53:16.702Z,-0.70
2019-01-04T04:55:44.960Z,-0.60
2019-01-04T04:58:13.217Z,-0.60
2019-01-04T05:00:41.482Z,-0.60
2019-01-04T05:03:29.167Z,-0.60
2019-01-04T05:05:57.437Z,-0.50
2019-01-04T05:08:25.958Z,-0.50
2019-01-04T05:10:54.235Z,-0.40
2019-01-04T05:13:22.483Z,-0.40
2019-01-04T05:15:50.821Z,-0.40
2019-01-04T05:18:19.080Z,-0.50
2019-01-04T05:20:47.341Z,-0.50
2019-01-04T05:23:15.590Z,-0.50
2019-01-04T05:25:43.861Z,-0.40
2019-01-04T05:28:12.121Z,-0.40
2019-01-04T05:30:40.382Z,-0.40
2019-01-04T05:33:08.640Z,-0.40
2019-01-04T05:35:36.918Z,-0.40
2019-01-04T05:38:05.173Z,-0.30
2019-01-04T05:40:33.456Z,-0.30
2019-01-04T05:43:01.711Z,-0.30
2019-01-04T05:45:29.957Z,-0.20
2019-01-04T05:47:58.222Z,-0.20
2019-01-04T05:50:26.543Z,-0.20
2019-01-04T05:52:54.808Z,-0.20
2019-01-04T05:55:23.069Z,-0.10
2019-01-04T05:57:51.333Z,-0.10
2019-01-04T06:00:19.583Z,-0.20
2019-01-04T06:02:51.531Z,-0.20
2019-01-04T06:05:19.791Z,-0.10
2019-01-04T06:10:21.493Z,0.00
2019-01-04T06:12:49.775Z,0.00
2019-01-04T06:15:18.017Z,0.20
2019-01-04T06:17:46.290Z,0.20
2019-01-04T06:20:14.557Z,0.20
2019-01-04T06:23:02.246Z,0.20
2019-01-04T06:25:30.509Z,0.20
2019-01-04T06:27:58.777Z,0.10
2019-01-04T06:30:27.033Z,0.10
2019-01-04T06:33:07.495Z,0.10
2019-01-04T06:35:35.742Z,0.10
2019-01-04T06:38:04.007Z,0.00
2019-01-04T06:40:32.262Z,0.00
2019-01-04T06:43:00.542Z,0.10
2019-01-04T06:45:28.803Z,0.20
2019-01-04T06:47:57.059Z,0.30
2019-01-04T06:50:25.321Z,0.50
2019-01-04T06:52:53.580Z,0.40
2019-01-04T06:55:36.966Z,0.40
2019-01-04T06:58:05.235Z,0.30
2019-01-04T07:00:33.487Z,0.40
2019-01-04T07:03:01.745Z,0.30
2019-01-04T07:05:29.998Z,0.40
2019-01-04T07:07:58.257Z,0.40
2019-01-04T07:10:26.837Z,0.40
2019-01-04T07:13:14.551Z,0.40
2019-01-04T07:15:42.798Z,0.40
2019-01-04T07:18:11.094Z,0.30
2019-01-04T07:20:39.388Z,0.30
2019-01-04T07:23:07.648Z,0.40
2019-01-04T07:25:35.909Z,0.40
2019-01-04T07:28:04.425Z,0.50
2019-01-04T07:30:32.682Z,0.50
2019-01-04T07:33:00.951Z,0.50
2019-01-04T07:35:29.224Z,0.60
2019-01-04T07:37:57.475Z,0.60
2019-01-04T07:40:25.736Z,0.60
2019-01-04T07:42:53.994Z,0.60
2019-01-04T07:45:22.250Z,0.50
2019-01-04T07:47:50.512Z,0.50
2019-01-04T07:50:18.763Z,0.50
2019-01-04T07:52:47.013Z,0.70
2019-01-04T07:55:15.276Z,0.80
2019-01-04T07:57:43.535Z,0.90
2019-01-04T08:00:12.361Z,1.10
2019-01-04T08:02:42.170Z,1.20
2019-01-04T08:05:15.944Z,1.00
2019-01-04T08:07:44.209Z,0.80
2019-01-04T08:10:12.457Z,0.90
2019-01-04T08:12:40.715Z,0.90
2019-01-04T08:15:10.414Z,1.00
2019-01-04T08:17:38.670Z,1.10
2019-01-04T08:20:09.292Z,0.90
2019-01-04T08:22:37.552Z,1.00
2019-01-04T08:25:06.748Z,1.00
2019-01-04T08:27:35.025Z,1.00
2019-01-04T08:30:04.124Z,1.10
2019-01-04T08:32:32.379Z,1.20
2019-01-04T08:35:00.664Z,1.30
2019-01-04T08:37:28.971Z,1.40
2019-01-04T08:39:57.225Z,1.50
2019-01-04T08:42:25.493Z,1.40
2019-01-04T08:44:53.746Z,1.40
2019-01-04T08:47:22.014Z,1.30
2019-01-04T08:49:50.281Z,1.30
2019-01-04T08:52:18.562Z,1.30
2019-01-04T08:54:46.835Z,1.30
2019-01-04T08:57:15.349Z,1.20
2019-01-04T08:59:43.615Z,1.20
2019-01-04T09:02:11.881Z,1.30
2019-01-04T09:04:40.142Z,1.30
2019-01-04T09:07:08.407Z,1.20
2019-01-04T09:09:36.653Z,1.20
2019-01-04T09:12:04.905Z,1.40
2019-01-04T09:14:33.178Z,1.40
2019-01-04T09:17:01.433Z,1.40
2019-01-04T09:19:29.689Z,1.40
2019-01-04T09:21:57.945Z,1.40
2019-01-04T09:24:26.233Z,1.40
2019-01-04T09:26:54.499Z,1.40
2019-01-04T09:29:22.765Z,1.40
2019-01-04T09:31:51.274Z,1.40
2019-01-04T09:34:19.530Z,1.40
2019-01-04T09:36:47.797Z,1.30
2019-01-04T09:39:16.061Z,1.30
2019-01-04T09:42:04.114Z,1.30
2019-01-04T09:44:32.382Z,1.40
2019-01-04T09:47:00.640Z,1.30
2019-01-04T09:49:28.905Z,1.30
2019-01-04T09:51:57.161Z,1.40
2019-01-04T09:54:25.436Z,1.30
2019-01-04T09:56:53.675Z,1.30
2019-01-04T09:59:21.946Z,1.30
2019-01-04T10:01:50.215Z,1.40
2019-01-04T10:04:18.474Z,1.50
2019-01-04T10:06:46.735Z,1.50
2019-01-04T10:09:15.005Z,1.50
2019-01-04T10:11:43.262Z,1.50
2019-01-04T10:14:30.968Z,1.50
2019-01-04T10:16:59.219Z,1.50
2019-01-04T10:19:27.490Z,1.50
2019-01-04T10:21:55.738Z,1.50
2019-01-04T10:24:23.994Z,1.50
2019-01-04T10:26:52.262Z,1.50
2019-01-04T10:29:20.518Z,1.50
2019-01-04T10:31:48.776Z,1.50
2019-01-04T10:34:17.034Z,1.60
2019-01-04T10:36:45.287Z,1.70
2019-01-04T10:39:13.546Z,1.70
2019-01-04T10:41:41.826Z,1.60
2019-01-04T10:44:10.085Z,1.70
2019-01-04T10:46:38.351Z,1.70
2019-01-04T10:49:06.614Z,1.60
2019-01-04T10:51:34.866Z,1.60
2019-01-04T10:54:22.553Z,1.70
2019-01-04T10:56:50.806Z,1.70
2019-01-04T10:59:38.506Z,1.70
2019-01-04T11:02:06.746Z,1.80
2019-01-04T11:04:35.012Z,1.80
2019-01-04T11:07:03.265Z,1.80
2019-01-04T11:09:31.521Z,1.90
2019-01-04T11:11:59.770Z,2.00
2019-01-04T11:14:28.032Z,2.10
2019-01-04T11:16:58.220Z,2.10
2019-01-04T11:19:26.270Z,2.10
2019-01-04T11:22:16.981Z,2.20
2019-01-04T11:24:51.307Z,2.10
2019-01-04T11:27:19.662Z,2.10
2019-01-04T11:29:57.269Z,2.10
2019-01-04T11:32:43.621Z,2.10
2019-01-04T11:35:18.081Z,2.10
2019-01-04T11:38:20.850Z,2.10
2019-01-04T11:41:04.013Z,2.10
2019-01-04T11:44:11.803Z,2.10
2019-01-04T11:46:54.855Z,2.10
2019-01-04T11:49:32.151Z,2.10
2019-01-04T11:52:03.666Z,2.10
2019-01-04T11:54:31.926Z,2.30
2019-01-04T11:57:00.200Z,2.50
2019-01-04T11:59:28.448Z,2.50
2019-01-04T12:01:56.707Z,2.40
2019-01-04T12:04:24.973Z,2.40
2019-01-04T12:06:53.224Z,2.40
2019-01-04T12:09:21.488Z,2.40
2019-01-04T12:11:49.738Z,2.50
2019-01-04T12:14:17.998Z,2.40
2019-01-04T12:16:46.243Z,2.40
2019-01-04T12:19:14.583Z,2.40
2019-01-04T12:21:42.823Z,2.30
2019-01-04T12:24:11.086Z,2.10
2019-01-04T12:26:39.334Z,2.10
2019-01-04T12:29:07.595Z,2.10
2019-01-04T12:31:35.859Z,2.00
2019-01-04T12:34:04.244Z,2.10
2019-01-04T12:36:34.354Z,2.10
2019-01-04T12:39:02.892Z,2.20
2019-01-04T12:41:33.064Z,2.20
2019-01-04T12:44:01.566Z,2.20
2019-01-04T12:46:30.012Z,2.10
2019-01-04T12:48:58.510Z,2.20
2019-01-04T12:51:26.944Z,2.20
2019-01-04T12:53:55.285Z,2.20
2019-01-04T12:56:23.595Z,2.20
2019-01-04T12:58:51.876Z,2.30
2019-01-04T13:01:20.255Z,2.30
2019-01-04T13:03:48.655Z,2.30
2019-01-04T13:06:16.912Z,2.20
2019-01-04T13:08:45.171Z,2.10
2019-01-04T13:11:13.438Z,2.20
2019-01-04T13:13:41.693Z,2.10
2019-01-04T13:16:09.979Z,2.10
2019-01-04T13:18:38.229Z,2.10
2019-01-04T13:21:06.493Z,2.10
2019-01-04T13:23:34.751Z,2.00
2019-01-04T13:26:03.023Z,2.00
2019-01-04T13:28:31.281Z,2.00
2019-01-04T13:30:59.554Z,2.10
2019-01-04T13:33:27.806Z,2.10
2019-01-04T13:35:56.057Z,2.20
2019-01-04T13:38:24.310Z,2.20
2019-01-04T13:40:52.571Z,2.30
2019-01-04T13:43:20.828Z,2.30
2019-01-04T13:45:49.085Z,2.20
2019-01-04T13:48:17.335Z,2.30
2019-01-04T13:50:45.598Z,2.20
2019-01-04T13:53:13.841Z,2.20
2019-01-04T13:55:42.108Z,2.30
2019-01-04T13:58:10.430Z,2.30
2019-01-04T14:00:38.689Z,2.30
2019-01-04T14:03:06.942Z,2.30
2019-01-04T14:05:35.217Z,2.40
2019-01-04T14:08:03.537Z,2.30
2019-01-04T14:10:31.801Z,2.30
2019-01-04T14:13:00.047Z,2.40
2019-01-04T14:15:28.310Z,2.20
2019-01-04T14:17:56.566Z,2.20
2019-01-04T14:20:24.830Z,2.30
2019-01-04T14:22:53.087Z,2.20
2019-01-04T14:25:21.349Z,2.30
2019-01-04T14:27:49.594Z,2.30
2019-01-04T14:30:17.861Z,2.20
2019-01-04T14:32:46.107Z,2.20
2019-01-04T14:35:33.802Z,2.20
2019-01-04T14:38:02.046Z,2.20
2019-01-04T14:40:30.301Z,2.20
2019-01-04T14:42:58.561Z,2.20
2019-01-04T14:45:26.817Z,2.20
2019-01-04T14:47:55.066Z,2.20
2019-01-04T14:50:23.326Z,2.10
2019-01-04T14:52:51.574Z,2.20
2019-01-04T14:55:19.827Z,2.10
2019-01-04T14:57:48.077Z,2.10
2019-01-04T15:00:16.326Z,2.10
2019-01-04T15:02:44.578Z,2.20
2019-01-04T15:05:12.840Z,2.20
2019-01-04T15:07:41.074Z,2.10
2019-01-04T15:10:09.596Z,2.10
2019-01-04T15:12:37.841Z,2.10
2019-01-04T15:15:06.745Z,2.10
2019-01-04T15:17:34.993Z,2.20
2019-01-04T15:20:03.628Z,2.20
2019-01-04T15:22:51.308Z,2.30
2019-01-04T15:25:19.574Z,2.20
2019-01-04T15:27:47.831Z,2.20
2019-01-04T15:30:22.171Z,2.30
2019-01-04T15:32:50.417Z,2.30
2019-01-04T15:35:18.677Z,2.30
2019-01-04T15:37:46.927Z,2.30
2019-01-04T15:40:15.181Z,2.30
2019-01-04T15:42:43.433Z,2.20
2019-01-04T15:45:11.699Z,2.20
2019-01-04T15:47:39.954Z,2.30
2019-01-04T15:50:08.879Z,2.30
2019-01-04T15:52:56.574Z,2.30
2019-01-04T15:55:24.831Z,2.30
2019-01-04T15:58:14.138Z,2.30
2019-01-04T16:00:42.395Z,2.30
2019-01-04T16:03:10.643Z,2.30
2019-01-04T16:05:38.907Z,2.40
2019-01-04T16:08:07.162Z,2.40
2019-01-04T16:10:35.427Z,2.40
2019-01-04T16:13:03.680Z,2.40
2019-01-04T16:15:31.949Z,2.40
2019-01-04T16:18:00.190Z,2.40
2019-01-04T16:20:28.457Z,2.40
2019-01-04T16:22:56.707Z,2.30
2019-01-04T16:25:25.007Z,2.30
2019-01-04T16:27:53.252Z,2.40
2019-01-04T16:30:21.498Z,2.40
2019-01-04T16:32:49.758Z,2.30
2019-01-04T16:35:18.003Z,2.40
2019-01-04T16:37:46.265Z,2.40
2019-01-04T16:40:14.510Z,2.40
2019-01-04T16:42:42.765Z,2.40
2019-01-04T16:45:11.020Z,2.40
2019-01-04T16:47:39.557Z,2.40
2019-01-04T16:50:08.086Z,2.50
2019-01-04T16:52:36.359Z,2.50
2019-01-04T16:55:05.847Z,2.50
2019-01-04T16:57:34.104Z,2.40
2019-01-04T17:00:02.525Z,2.40
2019-01-04T17:02:30.811Z,2.40
2019-01-04T17:04:59.058Z,2.40
2019-01-04T17:07:27.321Z,2.40
2019-01-04T17:09:55.569Z,2.40
2019-01-04T17:12:23.822Z,2.40
2019-01-04T17:14:52.090Z,2.40
2019-01-04T17:17:20.355Z,2.40
2019-01-04T17:19:48.607Z,2.40
2019-01-04T17:22:16.858Z,2.50
2019-01-04T17:24:45.101Z,2.40
2019-01-04T17:27:13.398Z,2.40
2019-01-04T17:29:41.657Z,2.40
2019-01-04T17:32:10.724Z,2.40
2019-01-04T17:34:38.974Z,2.50
2019-01-04T17:37:07.239Z,2.50
2019-01-04T17:39:35.489Z,2.40
2019-01-04T17:42:03.750Z,2.50
2019-01-04T17:44:51.431Z,2.60
2019-01-04T17:47:19.689Z,2.50
2019-01-04T17:49:47.958Z,2.50
2019-01-04T17:52:16.208Z,2.50
2019-01-04T17:54:44.454Z,2.50
2019-01-04T17:57:12.730Z,2.50
2019-01-04T17:59:40.974Z,2.60
2019-01-04T18:02:09.238Z,2.60
2019-01-04T18:04:37.481Z,2.60
2019-01-04T18:07:05.734Z,2.50
2019-01-04T18:09:33.982Z,2.60
2019-01-04T18:12:02.253Z,2.60
2019-01-04T18:14:30.505Z,2.60
2019-01-04T18:16:58.769Z,2.60
2019-01-04T18:19:27.023Z,2.60
2019-01-04T18:21:55.299Z,2.60
2019-01-04T18:24:23.604Z,2.60
2019-01-04T18:26:51.873Z,2.60
2019-01-04T18:29:20.114Z,2.70
2019-01-04T18:31:48.381Z,2.80
2019-01-04T18:34:16.638Z,2.60
2019-01-04T18:36:44.902Z,2.60
2019-01-04T18:39:13.153Z,2.60
2019-01-04T18:41:41.402Z,2.60
2019-01-04T18:44:18.397Z,2.60
2019-01-04T18:46:46.649Z,2.60
2019-01-04T18:49:14.947Z,2.70
2019-01-04T18:51:43.198Z,2.60
2019-01-04T18:54:11.442Z,2.60
2019-01-04T18:56:59.142Z,2.60
2019-01-04T18:59:27.397Z,2.60
2019-01-04T19:01:55.657Z,2.60
2019-01-04T19:04:23.901Z,2.60
2019-01-04T19:06:52.158Z,2.60
2019-01-04T19:09:20.422Z,2.50
2019-01-04T19:11:48.683Z,2.50
2019-01-04T19:14:16.931Z,2.50
2019-01-04T19:16:45.194Z,2.60
2019-01-04T19:19:13.443Z,2.60
2019-01-04T19:21:41.693Z,2.70
2019-01-04T19:24:09.949Z,2.70
2019-01-04T19:26:57.641Z,2.70
2019-01-04T19:29:25.904Z,2.70
2019-01-04T19:31:54.166Z,2.60
2019-01-04T19:34:22.414Z,2.70
2019-01-04T19:36:50.667Z,2.70
2019-01-04T19:39:18.935Z,2.70
2019-01-04T19:41:47.182Z,2.60
2019-01-04T19:44:15.447Z,2.60
2019-01-04T19:46:43.697Z,2.70
2019-01-04T19:49:11.962Z,2.70
2019-01-04T19:51:40.217Z,2.80
2019-01-04T19:54:08.483Z,2.80
2019-01-04T19:56:36.733Z,2.70
2019-01-04T19:59:04.991Z,2.70
2019-01-04T20:01:33.262Z,2.80
2019-01-04T20:04:01.525Z,2.90
2019-01-04T20:06:46.529Z,2.90
2019-01-04T20:09:54.534Z,2.90
2019-01-04T20:13:02.439Z,2.80
2019-01-04T20:15:47.472Z,2.90
2019-01-04T20:18:20.017Z,2.90
2019-01-04T20:21:04.987Z,2.90
2019-01-04T20:23:46.811Z,2.90
2019-01-04T20:26:19.436Z,2.90
2019-01-04T20:28:50.032Z,2.90
2019-01-04T20:31:36.406Z,2.90
2019-01-04T20:34:19.169Z,2.90
2019-01-04T20:37:05.311Z,2.90
2019-01-04T20:39:38.370Z,3.00
2019-01-04T20:42:23.389Z,3.00
2019-01-04T20:44:56.232Z,3.00
2019-01-04T20:47:42.314Z,3.00
2019-01-04T20:50:28.190Z,3.00
2019-01-04T20:53:17.728Z,3.00
2019-01-04T20:56:07.113Z,3.00
2019-01-04T20:58:37.069Z,3.10
2019-01-04T21:01:07.034Z,3.10
2019-01-04T21:03:42.642Z,3.10
2019-01-04T21:06:12.537Z,3.20
2019-01-04T21:08:42.442Z,3.20
2019-01-04T21:11:18.095Z,3.20
2019-01-04T21:13:56.989Z,3.20
2019-01-04T21:16:38.903Z,3.20
2019-01-04T21:19:08.805Z,3.30
2019-01-04T21:21:53.781Z,3.40
2019-01-04T21:24:40.334Z,3.40
2019-01-04T21:27:16.333Z,3.50
2019-01-04T21:30:02.431Z,3.50
2019-01-04T21:32:47.605Z,3.60
2019-01-04T21:35:17.494Z,3.50
2019-01-04T21:37:53.427Z,3.60
2019-01-04T21:40:39.478Z,3.60
2019-01-04T21:43:21.513Z,3.50
2019-01-04T21:46:07.701Z,3.60
2019-01-04T21:48:54.169Z,3.60
2019-01-04T21:51:55.582Z,3.60
2019-01-04T21:54:40.734Z,3.70
2019-01-04T21:57:38.855Z,3.70
2019-01-04T22:00:09.223Z,3.60
2019-01-04T22:05:43.313Z,3.50
2019-01-04T22:08:34.274Z,3.60
2019-01-04T22:11:20.329Z,3.50
2019-01-04T22:14:26.257Z,3.60
2019-01-04T22:17:11.440Z,3.60
2019-01-04T22:19:59.673Z,3.70
2019-01-04T22:22:35.450Z,3.60
2019-01-04T22:25:21.622Z,3.60
2019-01-04T22:27:57.302Z,3.60
2019-01-04T22:30:36.119Z,3.50
2019-01-04T22:33:08.837Z,3.50
2019-01-04T22:35:44.789Z,3.60
2019-01-04T22:38:36.883Z,3.60
2019-01-04T22:41:24.849Z,3.70
2019-01-04T22:44:04.240Z,3.70
2019-01-04T22:46:39.814Z,3.70
2019-01-04T22:49:12.382Z,3.70
2019-01-04T22:55:05.879Z,3.70
2019-01-04T22:57:38.902Z,3.80
2019-01-04T23:00:23.393Z,3.70
2019-01-04T23:03:01.985Z,3.70
2019-01-04T23:05:43.554Z,3.70
2019-01-04T23:08:13.793Z,3.60
2019-01-04T23:10:55.924Z,3.70
2019-01-04T23:13:25.809Z,3.70
2019-01-04T23:15:55.713Z,3.70
2019-01-04T23:18:42.331Z,3.60
2019-01-04T23:21:48.813Z,3.60
2019-01-04T23:24:18.723Z,3.60
2019-01-04T23:26:48.617Z,3.60
2019-01-04T23:29:30.594Z,3.70
2019-01-04T23:32:06.296Z,3.60
2019-01-04T23:34:51.535Z,3.60
2019-01-04T23:37:37.930Z,3.70
2019-01-04T23:40:20.301Z,3.70
2019-01-04T23:43:06.645Z,3.70
2019-01-04T23:45:36.551Z,3.70
2019-01-04T23:48:12.739Z,3.80
2019-01-04T23:50:45.474Z,3.90
2019-01-04T23:53:34.803Z,3.80
2019-01-04T23:56:16.898Z,3.70
2019-01-04T23:59:01.678Z,3.70
